Time;durP1;ratioP1;P1;durP2;ratioP2;P2;SDS_P1;SDS_P2;PMS_P1;PMS_P2;Temp;Humidity;BMP_temperature;BMP_pressure;BME280_temperature;BME280_humidity;BME280_pressure;Samples;Min_cycle;Max_cycle;Signal;HPM_P1;HPM_P2
2022/11/03 00:01:06;;;;;;;6.57;3.07;;;8.40;99.90;;;;;;5072115;28;20712;-60
2022/11/03 00:03:33;;;;;;;10.37;3.17;;;8.30;99.90;;;;;;5072390;28;20236;-60
2022/11/03 00:06:06;;;;;;;5.90;2.80;;;8.30;99.90;;;;;;5072221;28;20208;-59
2022/11/03 00:08:37;;;;;;;8.77;3.10;;;8.30;99.90;;;;;;5071682;28;20258;-59
2022/11/03 00:11:09;;;;;;;6.33;3.37;;;8.30;99.90;;;;;;5071958;28;20312;-59
2022/11/03 00:13:37;;;;;;;9.10;3.20;;;8.30;99.90;;;;;;5071953;28;20209;-59
2022/11/03 00:16:06;;;;;;;6.97;3.57;;;8.20;99.90;;;;;;5071908;28;20221;-59
2022/11/03 00:18:33;;;;;;;10.50;3.40;;;8.30;99.90;;;;;;5071583;28;20621;-60
2022/11/03 00:21:01;;;;;;;6.43;3.30;;;8.40;99.90;;;;;;5072291;28;20229;-60
2022/11/03 00:23:30;;;;;;;5.20;2.83;;;8.50;99.90;;;;;;5071620;28;20216;-59
2022/11/03 00:26:05;;;;;;;8.90;3.17;;;8.70;99.90;;;;;;5071627;28;20216;-60
2022/11/03 00:28:33;;;;;;;6.60;3.10;;;8.70;99.90;;;;;;5070946;28;20214;-58
2022/11/03 00:31:01;;;;;;;10.73;3.27;;;8.70;99.90;;;;;;5071857;28;20241;-59
2022/11/03 00:33:31;;;;;;;7.63;2.93;;;8.70;99.90;;;;;;5071973;28;20205;-58
2022/11/03 00:35:58;;;;;;;8.90;3.23;;;8.70;99.90;;;;;;5071575;28;20465;-59
2022/11/03 00:38:25;;;;;;;6.23;3.17;;;8.70;99.90;;;;;;5070784;28;20234;-59
2022/11/03 00:40:56;;;;;;;9.13;3.07;;;8.80;99.90;;;;;;5071439;28;20308;-58
2022/11/03 00:43:25;;;;;;;11.60;3.50;;;8.80;99.90;;;;;;5071497;28;20216;-59
2022/11/03 00:45:53;;;;;;;8.23;3.27;;;8.90;99.90;;;;;;5071772;28;20205;-61
2022/11/03 00:48:29;;;;;;;5.10;2.90;;;8.80;99.90;;;;;;5072013;28;20695;-58
2022/11/03 00:51:00;;;;;;;11.13;3.80;;;8.70;99.90;;;;;;5072133;28;20224;-59
2022/11/03 00:53:27;;;;;;;7.43;3.23;;;8.70;99.90;;;;;;5071878;28;20213;-58
2022/11/03 00:55:54;;;;;;;7.57;3.20;;;8.70;99.90;;;;;;5074949;28;20229;-59
2022/11/03 00:58:20;;;;;;;4.90;2.83;;;8.60;99.90;;;;;;5074847;28;20201;-58
2022/11/03 01:00:48;;;;;;;7.17;3.00;;;8.60;99.90;;;;;;5074735;28;20236;-57
2022/11/03 01:03:15;;;;;;;8.03;3.63;;;8.40;99.90;;;;;;5074672;28;20212;-58
2022/11/03 01:08:32;;;;;;;7.03;3.03;;;8.30;99.90;;;;;;5074226;28;20203;-58
2022/11/03 01:13:49;;;;;;;4.67;2.87;;;8.10;99.90;;;;;;5075191;28;20307;-58
2022/11/03 01:16:18;;;;;;;7.03;3.13;;;8.10;99.90;;;;;;5074582;28;20581;-59
2022/11/03 01:18:44;;;;;;;7.70;3.50;;;8.10;99.90;;;;;;5074517;28;20664;-59
2022/11/03 01:21:11;;;;;;;8.70;3.57;;;8.20;99.90;;;;;;5074151;28;20712;-59
2022/11/03 01:23:38;;;;;;;5.60;3.00;;;8.30;99.90;;;;;;5074509;28;20505;-58
2022/11/03 01:26:06;;;;;;;8.67;3.47;;;8.30;99.90;;;;;;5074377;28;20574;-59
2022/11/03 01:28:33;;;;;;;6.63;3.23;;;8.30;99.90;;;;;;5073999;28;20208;-59
2022/11/03 01:31:03;;;;;;;8.23;3.30;;;8.40;99.90;;;;;;5097949;22;20260;-64
2022/11/03 01:33:31;;;;;;;10.60;3.67;;;8.40;99.90;;;;;;5074562;28;20201;-63
2022/11/03 01:35:58;;;;;;;6.23;2.93;;;8.40;99.90;;;;;;5074065;28;20256;-63
2022/11/03 01:38:26;;;;;;;6.53;3.17;;;8.40;99.90;;;;;;5073628;28;20201;-64
2022/11/03 01:40:52;;;;;;;4.47;3.13;;;8.30;99.90;;;;;;5073953;28;20216;-63
2022/11/03 01:43:21;;;;;;;7.60;3.27;;;8.30;99.90;;;;;;5074190;28;20212;-63
2022/11/03 01:45:51;;;;;;;6.57;3.30;;;8.20;99.90;;;;;;5074265;28;20204;-62
2022/11/03 01:48:19;;;;;;;7.93;3.60;;;8.00;99.90;;;;;;5073389;28;20213;-63
2022/11/03 01:50:48;;;;;;;7.90;3.43;;;8.00;99.90;;;;;;5074161;28;20216;-63
2022/11/03 01:53:17;;;;;;;6.90;3.43;;;8.10;99.90;;;;;;5074195;28;20208;-63
2022/11/03 01:55:46;;;;;;;9.73;3.80;;;8.10;99.90;;;;;;5074025;28;20224;-63
2022/11/03 01:58:16;;;;;;;7.90;4.63;;;8.10;99.90;;;;;;5073818;28;20205;-64
2022/11/03 02:00:45;;;;;;;8.93;3.63;;;8.20;99.90;;;;;;5074108;28;20204;-63
2022/11/03 02:03:14;;;;;;;7.40;4.13;;;8.30;99.90;;;;;;5074522;28;20600;-63
2022/11/03 02:05:42;;;;;;;6.57;3.67;;;8.30;99.90;;;;;;5075706;28;20208;-63
2022/11/03 02:08:14;;;;;;;5.53;3.60;;;8.30;99.90;;;;;;5076984;28;20223;-63
2022/11/03 02:10:41;;;;;;;10.60;4.10;;;8.10;99.90;;;;;;5078517;28;20220;-63
2022/11/03 02:13:15;;;;;;;11.83;3.80;;;8.10;99.90;;;;;;5076345;28;20232;-63
2022/11/03 02:15:43;;;;;;;10.13;4.73;;;8.10;99.90;;;;;;5075957;28;20228;-63
2022/11/03 02:18:11;;;;;;;9.70;4.43;;;8.10;99.90;;;;;;5073936;28;20205;-63
2022/11/03 02:20:40;;;;;;;6.43;4.20;;;8.20;99.90;;;;;;5074837;28;20205;-63
2022/11/03 02:23:26;;;;;;;8.10;4.10;;;8.10;99.90;;;;;;5074616;28;20240;-64
2022/11/03 02:25:56;;;;;;;8.33;4.20;;;8.10;99.90;;;;;;5074600;28;20201;-64
2022/11/03 02:28:25;;;;;;;8.20;4.20;;;8.10;99.90;;;;;;5073032;28;20207;-64
2022/11/03 02:31:03;;;;;;;11.73;5.03;;;8.00;99.90;;;;;;5073928;28;20209;-64
2022/11/03 02:33:37;;;;;;;7.43;4.07;;;8.10;99.90;;;;;;5073919;28;20208;-63
2022/11/03 02:36:11;;;;;;;12.53;4.70;;;8.10;99.90;;;;;;5072938;28;20720;-63
2022/11/03 02:38:45;;;;;;;8.93;4.80;;;8.20;99.90;;;;;;5072696;28;20239;-63
2022/11/03 02:41:16;;;;;;;8.37;4.80;;;8.20;99.90;;;;;;5073034;28;20659;-63
2022/11/03 02:43:44;;;;;;;6.47;3.80;;;8.20;99.90;;;;;;5074605;28;20216;-63
2022/11/03 02:46:13;;;;;;;6.10;2.90;;;8.20;99.90;;;;;;5075332;28;20209;-63
2022/11/03 02:48:40;;;;;;;7.97;3.40;;;8.20;99.90;;;;;;5074702;28;20217;-63
2022/11/03 02:51:07;;;;;;;7.27;3.43;;;8.00;99.90;;;;;;5074301;28;20225;-63
2022/11/03 02:53:39;;;;;;;5.67;3.03;;;7.90;99.90;;;;;;5073693;28;20584;-63
2022/11/03 02:56:11;;;;;;;7.07;4.10;;;7.90;99.90;;;;;;5073323;28;20303;-63
2022/11/03 02:58:45;;;;;;;5.57;3.20;;;7.90;99.90;;;;;;5072760;28;20582;-62
2022/11/03 03:01:17;;;;;;;9.87;3.83;;;7.90;99.90;;;;;;5073624;28;20242;-64
2022/11/03 03:03:47;;;;;;;5.97;3.40;;;8.00;99.90;;;;;;5074506;28;20224;-62
2022/11/03 03:06:18;;;;;;;6.97;3.80;;;8.00;99.90;;;;;;5075452;28;20234;-63
2022/11/03 03:08:49;;;;;;;6.33;3.40;;;8.00;99.90;;;;;;5074842;28;20216;-63
2022/11/03 03:11:15;;;;;;;9.90;3.80;;;7.90;99.90;;;;;;5074855;28;20600;-64
2022/11/03 03:13:44;;;;;;;5.33;3.33;;;7.90;99.90;;;;;;5074733;28;20212;-62
2022/11/03 03:16:16;;;;;;;7.03;3.50;;;7.90;99.90;;;;;;5074676;28;20220;-62
2022/11/03 03:18:49;;;;;;;5.60;3.57;;;7.90;99.90;;;;;;5073570;28;20208;-63
2022/11/03 03:21:21;;;;;;;8.00;3.70;;;7.90;99.90;;;;;;5072470;28;20578;-62
2022/11/03 03:23:54;;;;;;;7.23;3.50;;;7.90;99.90;;;;;;5072082;28;20706;-63
2022/11/03 03:26:28;;;;;;;7.97;4.13;;;7.90;99.90;;;;;;5072070;28;20291;-63
2022/11/03 03:28:59;;;;;;;5.80;3.77;;;7.90;99.90;;;;;;5071512;28;20208;-63
2022/11/03 03:31:29;;;;;;;10.10;4.57;;;7.90;99.90;;;;;;5071901;28;20243;-62
2022/11/03 03:33:57;;;;;;;9.60;4.53;;;7.90;99.90;;;;;;5071885;28;20676;-63
2022/11/03 03:36:26;;;;;;;9.87;5.10;;;7.70;99.90;;;;;;5072152;28;20225;-63
2022/11/03 03:38:55;;;;;;;9.40;5.00;;;7.70;99.90;;;;;;5071449;28;20696;-63
2022/11/03 03:41:24;;;;;;;10.50;4.57;;;7.50;99.90;;;;;;5072092;28;20224;-63
2022/11/03 03:43:53;;;;;;;10.83;5.90;;;7.40;99.90;;;;;;5071990;28;20722;-63
2022/11/03 03:46:22;;;;;;;9.27;5.53;;;7.30;99.90;;;;;;5072134;28;20201;-64
2022/11/03 03:48:49;;;;;;;8.93;5.23;;;7.30;99.90;;;;;;5071500;28;20217;-63
2022/11/03 03:51:19;;;;;;;9.67;5.40;;;7.40;99.90;;;;;;5071882;28;20609;-64
2022/11/03 03:53:50;;;;;;;12.90;5.40;;;7.50;99.90;;;;;;5071956;28;20224;-64
2022/11/03 03:56:20;;;;;;;7.40;3.70;;;7.60;99.90;;;;;;5071679;28;20290;-63
2022/11/03 03:58:46;;;;;;;8.33;3.97;;;7.70;99.90;;;;;;5071552;28;20237;-63
2022/11/03 04:01:13;;;;;;;8.17;5.63;;;7.80;99.90;;;;;;5071848;28;20225;-64
2022/11/03 04:03:41;;;;;;;22.37;17.00;;;7.90;99.90;;;;;;5071806;28;20209;-63
2022/11/03 04:06:08;;;;;;;6.50;3.97;;;7.90;99.90;;;;;;5071657;28;20200;-63
2022/11/03 04:08:35;;;;;;;16.10;11.80;;;7.90;99.90;;;;;;5071088;28;20219;-64
2022/11/03 04:22:20;;;;;;;13.37;6.97;;;8.00;99.90;;;;;;5071859;28;20227;-64
2022/11/03 04:24:48;;;;;;;12.13;4.77;;;8.00;99.90;;;;;;5071952;28;20216;-63
2022/11/03 04:27:28;;;;;;;10.63;4.97;;;8.00;99.90;;;;;;5071900;28;20204;-64
2022/11/03 04:29:57;;;;;;;11.17;5.13;;;7.90;99.90;;;;;;5074718;28;20235;-64
2022/11/03 04:32:25;;;;;;;10.10;5.30;;;7.70;99.90;;;;;;5075138;28;20728;-63
2022/11/03 04:34:53;;;;;;;8.43;5.07;;;7.70;99.90;;;;;;5075506;28;20205;-64
2022/11/03 04:37:20;;;;;;;9.90;4.57;;;7.70;99.90;;;;;;5075063;28;20217;-64
2022/11/03 04:39:47;;;;;;;11.00;4.87;;;7.70;99.90;;;;;;5074745;28;20211;-64
2022/11/03 04:42:17;;;;;;;8.93;4.93;;;7.70;99.90;;;;;;5075178;28;20224;-64
2022/11/03 04:44:44;;;;;;;7.73;5.00;;;7.70;99.90;;;;;;5080834;28;20574;-64
2022/11/03 04:47:13;;;;;;;10.90;5.40;;;7.80;99.90;;;;;;5080282;28;20204;-64
2022/11/03 04:49:40;;;;;;;11.83;5.53;;;7.80;99.90;;;;;;5078371;28;20205;-64
2022/11/03 04:52:15;;;;;;;7.30;4.97;;;8.00;99.90;;;;;;5075944;28;20232;-63
2022/11/03 04:54:42;;;;;;;9.50;4.93;;;8.10;99.90;;;;;;5074921;28;20204;-63
2022/11/03 04:57:12;;;;;;;8.10;4.40;;;8.20;99.90;;;;;;5074699;28;20258;-63
2022/11/03 04:59:39;;;;;;;12.00;5.30;;;8.30;99.90;;;;;;5074390;28;20205;-63
2022/11/03 05:02:11;;;;;;;9.40;4.97;;;8.40;99.90;;;;;;5074879;28;20245;-63
2022/11/03 05:04:38;;;;;;;8.20;4.50;;;8.40;99.90;;;;;;5074807;28;20201;-63
2022/11/03 05:07:20;;;;;;;8.97;4.80;;;8.50;99.90;;;;;;5074483;28;20680;-63
2022/11/03 05:09:47;;;;;;;9.00;4.90;;;8.50;99.90;;;;;;5074334;28;20209;-63
2022/11/03 05:12:13;;;;;;;14.40;4.60;;;8.60;99.90;;;;;;5074562;28;20229;-63
2022/11/03 05:14:40;;;;;;;9.83;4.70;;;8.60;99.90;;;;;;5074687;28;20209;-63
2022/11/03 05:17:20;;;;;;;8.07;4.10;;;8.70;99.90;;;;;;5074391;28;20221;-63
2022/11/03 05:19:47;;;;;;;7.23;4.60;;;8.70;99.90;;;;;;5073875;28;20242;-63
2022/11/03 05:22:18;;;;;;;8.80;4.07;;;8.70;99.90;;;;;;5074536;28;20605;-63
2022/11/03 05:24:45;;;;;;;6.80;3.60;;;8.50;99.90;;;;;;5074343;28;20224;-63
2022/11/03 05:27:19;;;;;;;6.33;3.60;;;8.30;99.90;;;;;;5074354;28;20207;-64
2022/11/03 05:29:46;;;;;;;12.43;4.53;;;8.10;99.90;;;;;;5073771;28;20209;-64
2022/11/03 05:32:19;;;;;;;7.70;4.20;;;8.00;99.90;;;;;;5073918;28;20634;-64
2022/11/03 05:34:47;;;;;;;8.23;4.20;;;7.90;99.90;;;;;;5074388;28;20201;-64
2022/11/03 05:37:24;;;;;;;10.80;5.00;;;7.80;99.90;;;;;;5074213;28;20229;-64
2022/11/03 05:39:52;;;;;;;9.10;5.40;;;7.90;99.90;;;;;;5072664;28;20204;-64
2022/11/03 05:42:30;;;;;;;11.87;6.77;;;8.00;99.90;;;;;;5074010;28;20235;-64
2022/11/03 05:44:57;;;;;;;7.60;5.20;;;8.00;99.90;;;;;;5073839;28;20216;-64
2022/11/03 05:47:31;;;;;;;8.17;4.77;;;8.00;99.90;;;;;;5074108;28;20205;-63
2022/11/03 05:50:01;;;;;;;8.47;5.17;;;8.00;99.90;;;;;;5073485;28;20201;-64
2022/11/03 05:52:30;;;;;;;10.27;5.03;;;8.00;99.90;;;;;;5073812;28;20231;-63
2022/11/03 05:54:59;;;;;;;9.10;4.57;;;7.90;99.90;;;;;;5073783;28;20212;-64
2022/11/03 05:57:29;;;;;;;8.07;4.60;;;7.90;99.90;;;;;;5073857;28;20237;-64
2022/11/03 05:59:56;;;;;;;8.87;5.50;;;7.90;99.90;;;;;;5073078;28;20693;-64
2022/11/03 06:02:36;;;;;;;11.30;6.93;;;7.90;99.90;;;;;;5057546;28;20464;-65
2022/11/03 06:05:10;;;;;;;33.13;20.70;;;7.80;99.90;;;;;;5068432;28;20207;-65
2022/11/03 06:07:38;;;;;;;9.40;5.90;;;7.90;99.90;;;;;;5072435;28;20201;-63
2022/11/03 06:10:21;;;;;;;10.63;6.40;;;7.90;99.90;;;;;;5072144;28;20209;-64
2022/11/03 06:12:48;;;;;;;15.30;5.67;;;7.80;99.90;;;;;;5072348;28;20233;-67
2022/11/03 06:15:27;;;;;;;11.60;4.80;;;7.80;99.90;;;;;;5073371;28;20213;-64
2022/11/03 06:17:54;;;;;;;9.47;5.10;;;7.70;99.90;;;;;;5073076;28;20254;-68
2022/11/03 06:20:21;;;;;;;11.37;5.27;;;7.80;99.90;;;;;;5072239;28;20209;-67
2022/11/03 06:22:54;;;;;;;7.40;4.33;;;7.70;99.90;;;;;;5072292;28;20229;-65
2022/11/03 06:25:26;;;;;;;10.70;5.40;;;7.70;99.90;;;;;;5072393;28;20694;-65
2022/11/03 06:27:56;;;;;;;9.30;4.80;;;7.60;99.90;;;;;;5072434;28;20579;-65
2022/11/03 06:30:26;;;;;;;11.97;6.43;;;7.70;99.90;;;;;;5071628;28;20201;-65
2022/11/03 06:32:57;;;;;;;18.87;10.83;;;7.80;99.90;;;;;;5071995;28;20735;-66
2022/11/03 06:35:24;;;;;;;7.67;5.03;;;7.80;99.90;;;;;;5071776;28;20208;-65
2022/11/03 06:37:53;;;;;;;10.30;6.90;;;7.80;99.90;;;;;;5071741;28;20221;-66
2022/11/03 06:40:34;;;;;;;7.20;4.90;;;7.90;99.90;;;;;;5070648;28;20217;-68
2022/11/03 06:43:12;;;;;;;7.00;4.30;;;7.90;99.90;;;;;;5071205;28;20232;-66
2022/11/03 06:45:43;;;;;;;6.33;4.50;;;8.00;99.90;;;;;;5071093;28;20569;-66
2022/11/03 06:48:15;;;;;;;7.23;4.53;;;8.10;99.90;;;;;;5071171;28;20201;-67
2022/11/03 06:50:42;;;;;;;15.60;10.70;;;8.30;99.90;;;;;;5071389;28;20696;-65
2022/11/03 06:53:10;;;;;;;16.03;9.20;;;8.60;99.90;;;;;;5070477;28;20208;-62
2022/11/03 06:55:38;;;;;;;10.27;5.77;;;8.70;99.90;;;;;;5045020;28;20212;-65
2022/11/03 06:58:14;;;;;;;8.57;5.57;;;8.90;99.90;;;;;;5048765;28;20717;-63
2022/11/03 07:00:43;;;;;;;12.30;7.10;;;9.00;99.90;;;;;;5051518;28;20213;-66
2022/11/03 07:03:17;;;;;;;10.53;6.60;;;9.10;99.90;;;;;;5052951;28;20221;-61
2022/11/03 07:05:45;;;;;;;8.87;5.00;;;9.20;99.90;;;;;;5053222;28;20673;-61
2022/11/03 07:08:22;;;;;;;8.10;5.00;;;9.30;99.90;;;;;;5052086;28;20217;-62
2022/11/03 07:10:50;;;;;;;7.83;4.83;;;9.40;99.90;;;;;;5052592;28;20209;-62
2022/11/03 07:13:22;;;;;;;9.50;5.03;;;9.50;99.90;;;;;;5050724;28;20259;-68
2022/11/03 07:15:49;;;;;;;14.73;4.80;;;9.70;99.90;;;;;;5070117;28;20216;-64
2022/11/03 07:18:21;;;;;;;12.77;5.07;;;9.80;99.90;;;;;;5070195;28;20680;-65
2022/11/03 07:20:48;;;;;;;17.07;4.93;;;9.90;99.90;;;;;;5071087;28;20646;-66
2022/11/03 07:23:21;;;;;;;7.83;4.20;;;9.90;99.90;;;;;;5056090;28;20206;-65
2022/11/03 07:25:52;;;;;;;13.03;4.60;;;9.60;99.90;;;;;;5050907;28;20696;-63
2022/11/03 07:28:19;;;;;;;8.37;4.53;;;9.40;99.90;;;;;;5049960;28;20208;-63
2022/11/03 07:30:45;;;;;;;6.73;4.60;;;9.30;99.90;;;;;;5051151;28;20212;-63
2022/11/03 07:33:16;;;;;;;11.10;4.80;;;9.30;99.90;;;;;;5099806;23;20236;-59
2022/11/03 07:35:45;;;;;;;6.97;4.63;;;9.30;99.90;;;;;;5085713;28;20201;-60
2022/11/03 07:38:16;;;;;;;7.43;4.57;;;9.50;99.90;;;;;;5091595;28;20601;-58
2022/11/03 07:40:44;;;;;;;11.43;4.60;;;9.80;99.90;;;;;;5092172;28;20579;-60
2022/11/03 07:43:15;;;;;;;12.33;7.03;;;10.10;99.90;;;;;;5091986;28;20235;-60
2022/11/03 07:45:44;;;;;;;11.53;6.77;;;10.40;99.90;;;;;;5092114;28;20238;-60
2022/11/03 07:48:23;;;;;;;24.00;6.07;;;10.70;99.90;;;;;;5091724;28;20250;-60
2022/11/03 07:50:52;;;;;;;22.80;5.90;;;10.90;99.90;;;;;;5092362;28;20200;-58
2022/11/03 07:53:24;;;;;;;11.70;5.27;;;11.10;99.90;;;;;;5092193;28;20228;-60
2022/11/03 07:55:54;;;;;;;11.37;5.03;;;11.40;99.90;;;;;;5092000;28;20215;-61
2022/11/03 07:58:24;;;;;;;11.50;4.70;;;11.60;99.90;;;;;;5091752;28;20277;-60
2022/11/03 08:00:56;;;;;;;11.47;4.70;;;11.70;99.90;;;;;;5092000;28;20211;-60
2022/11/03 08:03:35;;;;;;;7.40;4.23;;;11.90;99.90;;;;;;5092766;28;20231;-60
2022/11/03 08:06:02;;;;;;;10.93;4.17;;;12.00;99.90;;;;;;5095712;28;20204;-60
2022/11/03 08:08:28;;;;;;;7.97;4.07;;;12.10;99.90;;;;;;5095089;28;20211;-59
2022/11/03 08:10:56;;;;;;;8.53;3.97;;;12.30;99.90;;;;;;5095721;28;20204;-60
2022/11/03 08:13:23;;;;;;;6.23;3.37;;;12.30;99.90;;;;;;5095595;28;20346;-60
2022/11/03 08:15:50;;;;;;;6.50;3.70;;;12.30;99.90;;;;;;5095609;28;20215;-61
2022/11/03 08:18:17;;;;;;;7.57;3.80;;;12.50;99.90;;;;;;5094858;28;20247;-59
2022/11/03 08:20:43;;;;;;;6.50;3.80;;;12.80;99.90;;;;;;5095550;28;20212;-61
2022/11/03 08:23:11;;;;;;;10.53;4.23;;;13.10;99.90;;;;;;5095273;28;20220;-60
2022/11/03 08:25:37;;;;;;;6.93;4.03;;;13.30;99.90;;;;;;5095844;28;20235;-60
2022/11/03 08:28:05;;;;;;;7.87;4.00;;;13.60;99.90;;;;;;5095428;28;20205;-60
2022/11/03 08:30:33;;;;;;;10.03;4.67;;;13.90;99.90;;;;;;5094562;28;20223;-60
2022/11/03 08:33:00;;;;;;;7.17;3.70;;;14.10;99.90;;;;;;5094995;28;20718;-60
2022/11/03 08:35:26;;;;;;;7.43;3.67;;;14.30;99.90;;;;;;5095213;28;20245;-60
2022/11/03 08:37:53;;;;;;;9.70;3.80;;;14.30;99.90;;;;;;5095294;28;20584;-59
2022/11/03 08:40:20;;;;;;;7.87;3.70;;;14.30;99.90;;;;;;5094709;28;20208;-60
2022/11/03 08:42:46;;;;;;;7.50;3.30;;;14.30;99.90;;;;;;5095152;28;20227;-60
2022/11/03 08:45:15;;;;;;;5.37;3.50;;;14.30;99.90;;;;;;5095090;28;20208;-60
2022/11/03 08:47:41;;;;;;;8.37;3.80;;;14.40;99.90;;;;;;5094762;28;20204;-60
2022/11/03 08:50:08;;;;;;;7.87;3.90;;;14.40;99.90;;;;;;5094251;28;20208;-60
2022/11/03 08:52:35;;;;;;;5.80;3.17;;;14.40;99.90;;;;;;5095132;28;20246;-60
2022/11/03 08:55:02;;;;;;;7.33;3.20;;;14.40;99.90;;;;;;5094853;28;20211;-59
2022/11/03 08:57:29;;;;;;;8.07;3.10;;;14.40;99.90;;;;;;5094611;28;20228;-60
2022/11/03 08:59:56;;;;;;;5.60;3.33;;;14.50;99.90;;;;;;5094112;28;20587;-59
2022/11/03 09:02:24;;;;;;;6.83;3.77;;;14.60;99.90;;;;;;5094716;28;20228;-61
2022/11/03 09:04:51;;;;;;;4.30;3.37;;;14.80;99.90;;;;;;5094681;28;20204;-61
2022/11/03 09:07:18;;;;;;;5.97;2.80;;;15.10;99.90;;;;;;5094791;28;20219;-59
2022/11/03 09:09:44;;;;;;;6.77;3.40;;;15.10;99.90;;;;;;5094103;28;20200;-60
2022/11/03 09:12:11;;;;;;;6.67;3.33;;;15.20;99.90;;;;;;5094651;28;20595;-61
2022/11/03 09:14:38;;;;;;;6.93;3.50;;;15.30;99.90;;;;;;5093691;28;20212;-61
2022/11/03 09:17:04;;;;;;;7.43;3.70;;;15.50;99.90;;;;;;5094113;28;20207;-60
2022/11/03 09:19:32;;;;;;;5.47;3.27;;;15.70;99.90;;;;;;5093816;28;20233;-61
2022/11/03 09:21:59;;;;;;;7.78;3.17;;;15.80;99.90;;;;;;5094426;28;20231;-60
2022/11/03 09:24:26;;;;;;;7.15;3.25;;;15.90;99.90;;;;;;5094356;28;20212;-61
2022/11/03 09:26:53;;;;;;;6.53;3.50;;;16.00;99.90;;;;;;5094182;28;20208;-61
2022/11/03 09:29:20;;;;;;;7.50;2.93;;;16.10;99.90;;;;;;5094036;28;20240;-61
2022/11/03 09:31:46;;;;;;;5.77;2.77;;;16.10;99.90;;;;;;5093914;28;20239;-59
2022/11/03 09:34:13;;;;;;;6.75;3.40;;;16.00;99.90;;;;;;5094342;28;20204;-61
2022/11/03 09:36:41;;;;;;;6.03;3.10;;;16.10;99.90;;;;;;5093940;28;20242;-61
2022/11/03 09:39:08;;;;;;;6.18;3.03;;;16.20;99.90;;;;;;5093240;28;20232;-61
2022/11/03 09:41:35;;;;;;;5.97;2.73;;;16.20;99.90;;;;;;5093839;28;20225;-60
2022/11/03 09:44:02;;;;;;;7.13;3.05;;;16.20;99.90;;;;;;5093974;28;20215;-60
2022/11/03 09:46:29;;;;;;;6.35;3.05;;;16.20;99.90;;;;;;5093689;28;20215;-59
2022/11/03 09:48:56;;;;;;;5.63;2.87;;;16.20;99.90;;;;;;5093673;28;20298;-60
2022/11/03 09:51:25;;;;;;;7.55;3.28;;;16.30;99.90;;;;;;5093887;28;20204;-61
2022/11/03 09:53:54;;;;;;;8.68;3.88;;;16.40;99.90;;;;;;5093693;28;20212;-59
2022/11/03 09:56:22;;;;;;;4.43;2.75;;;16.50;99.90;;;;;;5093882;28;20211;-61
2022/11/03 09:58:49;;;;;;;5.43;2.70;;;16.70;99.90;;;;;;5092709;28;20228;-60
2022/11/03 10:01:16;;;;;;;6.88;2.65;;;16.80;99.90;;;;;;5093672;28;20200;-59
2022/11/03 10:03:44;;;;;;;5.45;2.47;;;16.90;99.90;;;;;;5093784;28;20200;-59
2022/11/03 10:06:10;;;;;;;5.57;2.65;;;17.10;99.90;;;;;;5093742;28;20227;-61
2022/11/03 10:08:40;;;;;;;12.13;3.13;;;17.30;99.90;;;;;;5093028;28;20476;-59
2022/11/03 10:11:09;;;;;;;4.22;2.55;;;17.50;99.90;;;;;;5093594;28;20203;-61
2022/11/03 10:13:39;;;;;;;8.02;2.70;;;17.60;99.90;;;;;;5093266;28;20232;-58
2022/11/03 10:16:08;;;;;;;8.20;2.92;;;17.60;99.90;;;;;;5093347;28;20231;-59
2022/11/03 10:18:36;;;;;;;7.70;3.33;;;17.70;99.90;;;;;;5092581;28;20220;-59
2022/11/03 10:21:05;;;;;;;6.45;2.42;;;17.90;99.90;;;;;;5093059;28;20208;-59
2022/11/03 10:23:32;;;;;;;5.65;2.42;;;18.00;99.90;;;;;;5093014;28;20204;-58
2022/11/03 10:26:10;;;;;;;3.75;2.10;;;18.20;99.90;;;;;;5092853;28;20208;-59
2022/11/03 10:28:37;;;;;;;4.85;2.50;;;18.20;99.90;;;;;;5092606;28;20579;-59
2022/11/03 10:31:07;;;;;;;6.85;2.28;;;18.40;99.90;;;;;;5093431;28;20231;-60
2022/11/03 10:33:36;;;;;;;6.78;3.45;;;18.50;99.90;;;;;;5093347;28;20200;-59
2022/11/03 10:36:05;;;;;;;3.60;2.83;;;18.60;99.90;;;;;;5092941;28;20204;-59
2022/11/03 10:38:34;;;;;;;4.43;2.00;;;18.80;99.90;;;;;;5092107;28;20227;-60
2022/11/03 10:41:13;;;;;;;6.28;2.50;;;18.90;99.90;;;;;;5093035;28;20223;-59
2022/11/03 10:43:41;;;;;;;5.40;2.80;;;19.00;99.90;;;;;;5092942;28;20211;-59
2022/11/03 10:46:13;;;;;;;4.47;2.30;;;19.10;99.90;;;;;;5092574;28;20212;-59
2022/11/03 10:48:40;;;;;;;6.35;2.42;;;19.10;99.90;;;;;;5092284;28;20204;-58
2022/11/03 10:51:11;;;;;;;4.75;2.63;;;19.10;99.90;;;;;;5092325;28;20208;-59
2022/11/03 10:53:38;;;;;;;4.25;2.63;;;19.00;99.90;;;;;;5092878;28;20218;-60
2022/11/03 10:56:05;;;;;;;4.75;3.90;;;18.90;99.90;;;;;;5092426;28;20204;-59
2022/11/03 10:58:36;;;;;;;5.05;2.72;;;18.80;99.90;;;;;;5091658;28;20220;-60
2022/11/03 11:01:04;;;;;;;5.60;3.20;;;18.80;99.90;;;;;;5092364;28;20261;-61
2022/11/03 11:03:31;;;;;;;4.55;2.53;;;18.80;99.90;;;;;;5092421;28;20694;-60
2022/11/03 11:05:58;;;;;;;5.07;2.67;;;18.80;99.90;;;;;;5092919;28;20208;-60
2022/11/03 11:08:25;;;;;;;8.32;5.10;;;18.80;99.90;;;;;;5092508;28;20568;-58
2022/11/03 11:10:53;;;;;;;4.63;2.53;;;18.80;99.90;;;;;;5092897;28;20211;-57
2022/11/03 11:13:26;;;;;;;5.90;2.58;;;18.80;99.90;;;;;;5092516;28;20637;-56
2022/11/03 11:15:55;;;;;;;4.57;2.42;;;18.70;99.90;;;;;;5092426;28;20671;-56
2022/11/03 11:19:04;;;;;;;5.68;2.72;;;18.60;99.90;;;;;;5092714;28;20228;-60
2022/11/03 11:22:09;;;;;;;5.22;2.50;;;18.50;99.90;;;;;;5076923;28;20232;-58
2022/11/03 11:24:59;;;;;;;5.30;2.40;;;18.50;99.90;;;;;;5089821;28;20227;-58
2022/11/03 11:28:05;;;;;;;6.05;2.63;;;18.50;99.90;;;;;;5092230;28;20204;-57
2022/11/03 11:31:00;;;;;;;7.03;2.83;;;18.40;99.90;;;;;;5091707;28;20218;-56
2022/11/03 11:33:30;;;;;;;6.93;2.85;;;18.40;99.90;;;;;;5092257;28;20232;-60
2022/11/03 11:36:21;;;;;;;5.55;2.38;;;18.40;99.90;;;;;;5092216;28;20200;-60
2022/11/03 11:38:58;;;;;;;4.65;2.50;;;18.50;99.90;;;;;;5090763;28;21162;-59
2022/11/03 11:42:02;;;;;;;5.72;2.58;;;18.40;99.90;;;;;;5092418;28;20211;-59
2022/11/03 11:44:53;;;;;;;5.03;3.00;;;18.50;99.90;;;;;;5092128;28;20210;-60
2022/11/03 11:47:30;;;;;;;5.22;2.38;;;18.50;99.90;;;;;;5092316;28;20222;-58
2022/11/03 11:50:16;;;;;;;6.88;2.70;;;18.50;99.90;;;;;;5091464;28;20204;-63
2022/11/03 11:52:45;;;;;;;5.05;2.45;;;18.70;99.90;;;;;;5091803;28;20260;-58
2022/11/03 11:55:20;;;;;;;4.40;2.20;;;18.90;99.90;;;;;;5091685;28;20690;-56
2022/11/03 11:57:47;;;;;;;22.55;3.90;;;19.00;99.90;;;;;;5091434;28;20212;-58
2022/11/03 12:00:22;;;;;;;8.63;2.50;;;19.10;99.90;;;;;;5090919;28;20591;-56
2022/11/03 12:02:52;;;;;;;6.78;3.15;;;19.20;99.90;;;;;;5091781;28;20604;-57
2022/11/03 12:05:24;;;;;;;5.50;3.20;;;19.20;99.90;;;;;;5091795;28;20199;-58
2022/11/03 12:07:52;;;;;;;4.65;2.58;;;19.30;99.90;;;;;;5091006;28;20226;-61
2022/11/03 12:10:21;;;;;;;4.10;2.60;;;19.20;99.90;;;;;;5090886;28;20204;-57
2022/11/03 12:12:48;;;;;;;5.97;2.83;;;19.30;99.90;;;;;;5091588;28;20255;-57
2022/11/03 12:15:52;;;;;;;4.93;2.70;;;19.30;99.90;;;;;;5091567;28;20207;-57
2022/11/03 12:18:33;;;;;;;5.18;2.22;;;19.40;99.90;;;;;;5091401;28;20211;-58
2022/11/03 12:21:01;;;;;;;5.05;2.80;;;19.50;99.90;;;;;;5091821;28;20208;-57
2022/11/03 12:23:49;;;;;;;4.18;2.13;;;19.50;99.90;;;;;;5091315;28;20554;-57
2022/11/03 12:26:18;;;;;;;4.25;1.90;;;19.50;99.90;;;;;;5086664;28;20205;-57
2022/11/03 12:28:45;;;;;;;4.25;2.05;;;19.40;99.90;;;;;;5090627;28;20236;-58
2022/11/03 12:31:12;;;;;;;4.85;2.20;;;19.40;99.90;;;;;;5091457;28;20211;-56
2022/11/03 12:33:40;;;;;;;5.15;2.15;;;19.40;99.90;;;;;;5091426;28;20212;-59
2022/11/03 12:36:08;;;;;;;6.00;2.83;;;19.40;99.90;;;;;;5091294;28;20215;-58
2022/11/03 12:38:35;;;;;;;5.13;3.50;;;19.10;99.90;;;;;;5091056;28;20275;-57
2022/11/03 12:41:20;;;;;;;8.77;3.60;;;18.90;99.90;;;;;;5091951;28;20262;-57
2022/11/03 12:43:47;;;;;;;4.03;2.35;;;18.80;99.90;;;;;;5091907;28;20214;-57
2022/11/03 12:46:15;;;;;;;5.07;2.80;;;18.60;99.90;;;;;;5091993;28;20219;-57
2022/11/03 12:48:43;;;;;;;4.32;2.45;;;18.50;99.90;;;;;;5091067;28;20215;-57
2022/11/03 12:51:11;;;;;;;5.63;3.00;;;18.40;99.90;;;;;;5095122;28;20775;-58
2022/11/03 12:53:38;;;;;;;5.22;2.83;;;18.30;99.90;;;;;;5095294;28;20212;-57
2022/11/03 12:56:05;;;;;;;5.93;3.35;;;18.20;99.90;;;;;;5095006;28;20212;-57
2022/11/03 12:58:32;;;;;;;6.57;4.45;;;17.90;99.90;;;;;;5094988;28;20227;-57
2022/11/03 13:00:59;;;;;;;5.82;3.40;;;17.90;99.90;;;;;;5094430;28;20211;-58
2022/11/03 13:03:26;;;;;;;5.97;3.50;;;17.90;99.90;;;;;;5094832;28;20711;-58
2022/11/03 13:05:54;;;;;;;5.47;3.30;;;17.90;99.90;;;;;;5094795;28;20204;-63
2022/11/03 13:08:21;;;;;;;9.05;2.80;;;17.90;99.90;;;;;;5094782;28;20204;-58
2022/11/03 13:10:48;;;;;;;4.57;2.78;;;17.90;99.90;;;;;;5094246;28;20208;-55
2022/11/03 13:13:15;;;;;;;5.53;3.38;;;17.90;99.90;;;;;;5094663;28;20227;-55
2022/11/03 13:15:41;;;;;;;4.57;2.50;;;17.90;99.90;;;;;;5093236;28;20208;-61
2022/11/03 13:18:08;;;;;;;6.20;2.40;;;17.90;99.90;;;;;;5076156;28;20208;-55
2022/11/03 13:20:35;;;;;;;7.50;3.28;;;17.90;99.90;;;;;;5089849;28;20216;-56
2022/11/03 13:23:04;;;;;;;4.80;2.60;;;17.90;99.90;;;;;;5092596;28;20239;-56